sensor_id;sensor_type;location;lat;lon;timestamp;P1;durP1;ratioP1;P2;durP2;ratioP2
36651;SDS011;53334;51.976;20.144;2023-07-13T00:04:41;3.47;;;3.17;;
36651;SDS011;53334;51.976;20.144;2023-07-13T00:07:15;3.20;;;2.90;;
36651;SDS011;53334;51.976;20.144;2023-07-13T00:09:51;4.10;;;2.83;;
36651;SDS011;53334;51.976;20.144;2023-07-13T00:12:27;4.07;;;3.60;;
36651;SDS011;53334;51.976;20.144;2023-07-13T00:15:03;3.10;;;2.80;;
36651;SDS011;53334;51.976;20.144;2023-07-13T00:17:39;3.80;;;3.50;;
36651;SDS011;53334;51.976;20.144;2023-07-13T00:20:12;3.60;;;2.33;;
36651;SDS011;53334;51.976;20.144;2023-07-13T00:22:45;3.13;;;2.83;;
36651;SDS011;53334;51.976;20.144;2023-07-13T00:25:19;4.18;;;3.03;;
36651;SDS011;53334;51.976;20.144;2023-07-13T00:27:54;3.35;;;3.05;;
36651;SDS011;53334;51.976;20.144;2023-07-13T00:30:28;3.00;;;2.72;;
36651;SDS011;53334;51.976;20.144;2023-07-13T00:33:02;3.35;;;3.03;;
36651;SDS011;53334;51.976;20.144;2023-07-13T00:35:48;3.58;;;3.20;;
36651;SDS011;53334;51.976;20.144;2023-07-13T00:38:22;3.45;;;3.15;;
36651;SDS011;53334;51.976;20.144;2023-07-13T00:40:56;3.45;;;3.08;;
36651;SDS011;53334;51.976;20.144;2023-07-13T00:43:30;3.03;;;2.78;;
36651;SDS011;53334;51.976;20.144;2023-07-13T00:46:18;4.68;;;2.90;;
36651;SDS011;53334;51.976;20.144;2023-07-13T00:48:55;2.38;;;2.17;;
36651;SDS011;53334;51.976;20.144;2023-07-13T00:51:32;2.80;;;2.42;;
36651;SDS011;53334;51.976;20.144;2023-07-13T00:54:10;3.15;;;2.85;;
36651;SDS011;53334;51.976;20.144;2023-07-13T00:56:47;3.20;;;3.00;;
36651;SDS011;53334;51.976;20.144;2023-07-13T00:59:25;4.05;;;3.00;;
36651;SDS011;53334;51.976;20.144;2023-07-13T01:01:58;3.17;;;2.80;;
36651;SDS011;53334;51.976;20.144;2023-07-13T01:07:05;3.50;;;3.20;;
36651;SDS011;53334;51.976;20.144;2023-07-13T01:09:39;3.50;;;3.20;;
36651;SDS011;53334;51.976;20.144;2023-07-13T01:12:12;3.53;;;2.75;;
36651;SDS011;53334;51.976;20.144;2023-07-13T01:14:47;3.42;;;2.92;;
36651;SDS011;53334;51.976;20.144;2023-07-13T01:17:21;3.40;;;3.10;;
36651;SDS011;53334;51.976;20.144;2023-07-13T01:19:54;3.70;;;3.15;;
36651;SDS011;53334;51.976;20.144;2023-07-13T01:25:04;2.97;;;2.67;;
36651;SDS011;53334;51.976;20.144;2023-07-13T01:27:38;3.03;;;2.63;;
36651;SDS011;53334;51.976;20.144;2023-07-13T01:30:13;3.10;;;2.80;;
36651;SDS011;53334;51.976;20.144;2023-07-13T01:32:47;9.02;;;3.13;;
36651;SDS011;53334;51.976;20.144;2023-07-13T01:35:20;2.90;;;2.70;;
36651;SDS011;53334;51.976;20.144;2023-07-13T01:37:55;3.35;;;2.92;;
36651;SDS011;53334;51.976;20.144;2023-07-13T01:40:29;3.00;;;2.70;;
36651;SDS011;53334;51.976;20.144;2023-07-13T01:43:02;2.83;;;2.63;;
36651;SDS011;53334;51.976;20.144;2023-07-13T01:45:36;3.58;;;3.15;;
36651;SDS011;53334;51.976;20.144;2023-07-13T01:48:10;5.22;;;2.50;;
36651;SDS011;53334;51.976;20.144;2023-07-13T01:50:44;3.17;;;2.53;;
36651;SDS011;53334;51.976;20.144;2023-07-13T01:53:18;4.63;;;2.75;;
36651;SDS011;53334;51.976;20.144;2023-07-13T01:55:52;3.22;;;3.03;;
36651;SDS011;53334;51.976;20.144;2023-07-13T01:58:25;2.60;;;2.40;;
36651;SDS011;53334;51.976;20.144;2023-07-13T02:00:59;2.63;;;2.42;;
36651;SDS011;53334;51.976;20.144;2023-07-13T02:03:32;2.67;;;2.47;;
36651;SDS011;53334;51.976;20.144;2023-07-13T02:06:05;3.10;;;2.80;;
36651;SDS011;53334;51.976;20.144;2023-07-13T02:08:41;3.45;;;2.92;;
36651;SDS011;53334;51.976;20.144;2023-07-13T02:11:14;3.08;;;2.38;;
36651;SDS011;53334;51.976;20.144;2023-07-13T02:13:47;2.60;;;2.40;;
36651;SDS011;53334;51.976;20.144;2023-07-13T02:16:21;3.10;;;2.70;;
36651;SDS011;53334;51.976;20.144;2023-07-13T02:18:54;2.80;;;2.60;;
36651;SDS011;53334;51.976;20.144;2023-07-13T02:21:28;3.08;;;2.78;;
36651;SDS011;53334;51.976;20.144;2023-07-13T02:24:03;3.22;;;2.45;;
36651;SDS011;53334;51.976;20.144;2023-07-13T02:26:37;4.10;;;2.90;;
36651;SDS011;53334;51.976;20.144;2023-07-13T02:29:10;2.88;;;2.25;;
36651;SDS011;53334;51.976;20.144;2023-07-13T02:31:44;3.35;;;2.90;;
36651;SDS011;53334;51.976;20.144;2023-07-13T02:34:17;3.92;;;2.55;;
36651;SDS011;53334;51.976;20.144;2023-07-13T02:36:50;3.83;;;2.72;;
36651;SDS011;53334;51.976;20.144;2023-07-13T02:39:25;2.75;;;2.55;;
36651;SDS011;53334;51.976;20.144;2023-07-13T02:41:58;3.22;;;2.78;;
36651;SDS011;53334;51.976;20.144;2023-07-13T02:47:05;2.85;;;2.58;;
36651;SDS011;53334;51.976;20.144;2023-07-13T02:52:12;2.40;;;2.20;;
36651;SDS011;53334;51.976;20.144;2023-07-13T02:54:47;2.50;;;2.30;;
36651;SDS011;53334;51.976;20.144;2023-07-13T02:57:20;2.83;;;2.63;;
36651;SDS011;53334;51.976;20.144;2023-07-13T02:59:54;2.92;;;2.42;;
36651;SDS011;53334;51.976;20.144;2023-07-13T03:02:27;3.30;;;3.00;;
36651;SDS011;53334;51.976;20.144;2023-07-13T03:05:01;2.90;;;2.60;;
36651;SDS011;53334;51.976;20.144;2023-07-13T03:07:36;3.17;;;2.42;;
36651;SDS011;53334;51.976;20.144;2023-07-13T03:10:11;4.25;;;2.53;;
36651;SDS011;53334;51.976;20.144;2023-07-13T03:12:49;3.08;;;2.63;;
36651;SDS011;53334;51.976;20.144;2023-07-13T03:15:28;4.10;;;2.90;;
36651;SDS011;53334;51.976;20.144;2023-07-13T03:18:02;2.47;;;2.28;;
36651;SDS011;53334;51.976;20.144;2023-07-13T03:20:36;4.45;;;2.60;;
36651;SDS011;53334;51.976;20.144;2023-07-13T03:23:09;2.67;;;2.45;;
36651;SDS011;53334;51.976;20.144;2023-07-13T03:25:44;2.83;;;2.17;;
36651;SDS011;53334;51.976;20.144;2023-07-13T03:28:18;3.10;;;2.80;;
36651;SDS011;53334;51.976;20.144;2023-07-13T03:30:58;2.58;;;2.38;;
36651;SDS011;53334;51.976;20.144;2023-07-13T03:33:32;2.58;;;2.38;;
36651;SDS011;53334;51.976;20.144;2023-07-13T03:36:07;3.03;;;2.72;;
36651;SDS011;53334;51.976;20.144;2023-07-13T03:38:42;3.33;;;3.03;;
36651;SDS011;53334;51.976;20.144;2023-07-13T03:41:17;2.60;;;2.40;;
36651;SDS011;53334;51.976;20.144;2023-07-13T03:43:53;2.58;;;2.38;;
36651;SDS011;53334;51.976;20.144;2023-07-13T03:46:29;2.70;;;2.50;;
36651;SDS011;53334;51.976;20.144;2023-07-13T03:51:37;2.35;;;2.17;;
36651;SDS011;53334;51.976;20.144;2023-07-13T03:54:10;3.03;;;2.72;;
36651;SDS011;53334;51.976;20.144;2023-07-13T03:56:45;2.70;;;2.50;;
36651;SDS011;53334;51.976;20.144;2023-07-13T03:59:19;2.88;;;2.67;;
36651;SDS011;53334;51.976;20.144;2023-07-13T04:01:53;3.03;;;2.70;;
36651;SDS011;53334;51.976;20.144;2023-07-13T04:04:26;3.13;;;2.55;;
36651;SDS011;53334;51.976;20.144;2023-07-13T04:07:00;2.55;;;2.35;;
36651;SDS011;53334;51.976;20.144;2023-07-13T04:09:33;2.70;;;2.50;;
36651;SDS011;53334;51.976;20.144;2023-07-13T04:12:08;3.25;;;2.67;;
36651;SDS011;53334;51.976;20.144;2023-07-13T04:14:42;2.85;;;2.45;;
36651;SDS011;53334;51.976;20.144;2023-07-13T04:17:15;2.92;;;2.63;;
36651;SDS011;53334;51.976;20.144;2023-07-13T04:19:48;2.42;;;2.22;;
36651;SDS011;53334;51.976;20.144;2023-07-13T04:22:21;2.75;;;2.55;;
36651;SDS011;53334;51.976;20.144;2023-07-13T04:24:55;2.70;;;2.50;;
36651;SDS011;53334;51.976;20.144;2023-07-13T04:27:29;2.88;;;2.65;;
36651;SDS011;53334;51.976;20.144;2023-07-13T04:30:03;7.18;;;3.15;;
36651;SDS011;53334;51.976;20.144;2023-07-13T04:32:38;2.72;;;2.53;;
36651;SDS011;53334;51.976;20.144;2023-07-13T04:35:11;3.13;;;2.42;;
36651;SDS011;53334;51.976;20.144;2023-07-13T04:37:45;2.97;;;2.70;;
36651;SDS011;53334;51.976;20.144;2023-07-13T04:40:21;2.70;;;2.47;;
36651;SDS011;53334;51.976;20.144;2023-07-13T04:42:56;3.25;;;2.95;;
36651;SDS011;53334;51.976;20.144;2023-07-13T04:45:29;3.08;;;2.47;;
36651;SDS011;53334;51.976;20.144;2023-07-13T04:48:03;2.28;;;2.13;;
36651;SDS011;53334;51.976;20.144;2023-07-13T04:50:37;2.95;;;2.47;;
36651;SDS011;53334;51.976;20.144;2023-07-13T04:53:11;2.65;;;2.30;;
36651;SDS011;53334;51.976;20.144;2023-07-13T04:55:44;2.97;;;2.67;;
36651;SDS011;53334;51.976;20.144;2023-07-13T04:58:20;2.70;;;2.50;;
36651;SDS011;53334;51.976;20.144;2023-07-13T05:00:53;2.63;;;2.42;;
36651;SDS011;53334;51.976;20.144;2023-07-13T05:03:32;2.55;;;2.35;;
36651;SDS011;53334;51.976;20.144;2023-07-13T05:06:07;3.05;;;2.75;;
36651;SDS011;53334;51.976;20.144;2023-07-13T05:08:42;5.20;;;2.70;;
36651;SDS011;53334;51.976;20.144;2023-07-13T05:11:18;2.95;;;2.53;;
36651;SDS011;53334;51.976;20.144;2023-07-13T05:13:52;2.60;;;2.40;;
36651;SDS011;53334;51.976;20.144;2023-07-13T05:16:25;2.97;;;2.63;;
36651;SDS011;53334;51.976;20.144;2023-07-13T05:18:59;5.05;;;2.60;;
36651;SDS011;53334;51.976;20.144;2023-07-13T05:21:32;3.47;;;2.97;;
36651;SDS011;53334;51.976;20.144;2023-07-13T05:24:06;2.90;;;2.60;;
36651;SDS011;53334;51.976;20.144;2023-07-13T05:26:54;3.28;;;2.78;;
36651;SDS011;53334;51.976;20.144;2023-07-13T05:29:28;2.85;;;2.65;;
36651;SDS011;53334;51.976;20.144;2023-07-13T05:32:02;2.60;;;2.40;;
36651;SDS011;53334;51.976;20.144;2023-07-13T05:34:36;2.67;;;2.42;;
36651;SDS011;53334;51.976;20.144;2023-07-13T05:37:09;2.97;;;2.67;;
36651;SDS011;53334;51.976;20.144;2023-07-13T05:39:43;3.05;;;2.80;;
36651;SDS011;53334;51.976;20.144;2023-07-13T05:42:16;3.75;;;2.78;;
36651;SDS011;53334;51.976;20.144;2023-07-13T05:44:51;2.47;;;2.28;;
36651;SDS011;53334;51.976;20.144;2023-07-13T05:47:24;2.60;;;2.40;;
36651;SDS011;53334;51.976;20.144;2023-07-13T05:49:58;3.85;;;2.60;;
36651;SDS011;53334;51.976;20.144;2023-07-13T05:52:33;2.75;;;2.47;;
36651;SDS011;53334;51.976;20.144;2023-07-13T05:55:06;3.25;;;2.50;;
36651;SDS011;53334;51.976;20.144;2023-07-13T05:57:40;3.28;;;2.85;;
36651;SDS011;53334;51.976;20.144;2023-07-13T06:00:15;2.58;;;2.30;;
36651;SDS011;53334;51.976;20.144;2023-07-13T06:02:49;2.58;;;2.22;;
36651;SDS011;53334;51.976;20.144;2023-07-13T06:05:22;3.22;;;2.55;;
36651;SDS011;53334;51.976;20.144;2023-07-13T06:07:56;3.42;;;2.33;;
36651;SDS011;53334;51.976;20.144;2023-07-13T06:10:29;2.95;;;2.65;;
36651;SDS011;53334;51.976;20.144;2023-07-13T06:13:05;2.70;;;2.50;;
36651;SDS011;53334;51.976;20.144;2023-07-13T06:15:40;3.63;;;2.70;;
36651;SDS011;53334;51.976;20.144;2023-07-13T06:18:13;4.38;;;2.40;;
36651;SDS011;53334;51.976;20.144;2023-07-13T06:20:46;2.78;;;2.58;;
36651;SDS011;53334;51.976;20.144;2023-07-13T06:23:19;2.83;;;2.42;;
36651;SDS011;53334;51.976;20.144;2023-07-13T06:25:53;2.70;;;2.50;;
36651;SDS011;53334;51.976;20.144;2023-07-13T06:28:26;2.97;;;2.78;;
36651;SDS011;53334;51.976;20.144;2023-07-13T06:31:04;2.78;;;2.58;;
36651;SDS011;53334;51.976;20.144;2023-07-13T06:33:38;2.85;;;2.55;;
36651;SDS011;53334;51.976;20.144;2023-07-13T06:36:12;2.92;;;2.63;;
36651;SDS011;53334;51.976;20.144;2023-07-13T06:38:45;3.55;;;2.38;;
36651;SDS011;53334;51.976;20.144;2023-07-13T06:41:19;5.43;;;2.97;;
36651;SDS011;53334;51.976;20.144;2023-07-13T06:43:53;3.30;;;3.00;;
36651;SDS011;53334;51.976;20.144;2023-07-13T06:46:28;2.47;;;2.05;;
36651;SDS011;53334;51.976;20.144;2023-07-13T06:49:03;2.75;;;2.55;;
36651;SDS011;53334;51.976;20.144;2023-07-13T06:51:36;2.63;;;2.42;;
36651;SDS011;53334;51.976;20.144;2023-07-13T06:54:10;2.72;;;2.50;;
36651;SDS011;53334;51.976;20.144;2023-07-13T06:56:44;2.95;;;2.75;;
36651;SDS011;53334;51.976;20.144;2023-07-13T07:01:53;2.78;;;2.58;;
36651;SDS011;53334;51.976;20.144;2023-07-13T07:04:26;2.40;;;2.20;;
36651;SDS011;53334;51.976;20.144;2023-07-13T07:07:00;2.40;;;2.15;;
36651;SDS011;53334;51.976;20.144;2023-07-13T07:09:34;2.97;;;2.67;;
36651;SDS011;53334;51.976;20.144;2023-07-13T07:12:07;2.35;;;2.20;;
36651;SDS011;53334;51.976;20.144;2023-07-13T07:14:44;2.30;;;2.05;;
36651;SDS011;53334;51.976;20.144;2023-07-13T07:17:19;2.67;;;2.47;;
36651;SDS011;53334;51.976;20.144;2023-07-13T07:19:55;3.33;;;2.80;;
36651;SDS011;53334;51.976;20.144;2023-07-13T07:22:29;2.10;;;2.00;;
36651;SDS011;53334;51.976;20.144;2023-07-13T07:27:36;2.53;;;2.33;;
36651;SDS011;53334;51.976;20.144;2023-07-13T07:30:13;2.22;;;2.03;;
36651;SDS011;53334;51.976;20.144;2023-07-13T07:32:51;2.40;;;2.20;;
36651;SDS011;53334;51.976;20.144;2023-07-13T07:35:28;2.22;;;2.03;;
36651;SDS011;53334;51.976;20.144;2023-07-13T07:38:05;3.22;;;2.55;;
36651;SDS011;53334;51.976;20.144;2023-07-13T07:40:41;3.55;;;2.65;;
36651;SDS011;53334;51.976;20.144;2023-07-13T07:43:18;3.35;;;3.05;;
36651;SDS011;53334;51.976;20.144;2023-07-13T07:48:27;2.97;;;2.67;;
36651;SDS011;53334;51.976;20.144;2023-07-13T07:51:01;2.85;;;2.63;;
36651;SDS011;53334;51.976;20.144;2023-07-13T07:56:08;2.50;;;2.30;;
36651;SDS011;53334;51.976;20.144;2023-07-13T07:58:44;3.42;;;3.10;;
36651;SDS011;53334;51.976;20.144;2023-07-13T08:01:21;2.60;;;2.38;;
36651;SDS011;53334;51.976;20.144;2023-07-13T08:03:58;2.65;;;2.35;;
36651;SDS011;53334;51.976;20.144;2023-07-13T08:06:35;2.25;;;2.05;;
36651;SDS011;53334;51.976;20.144;2023-07-13T08:09:11;2.45;;;2.25;;
36651;SDS011;53334;51.976;20.144;2023-07-13T08:11:45;3.15;;;2.50;;
36651;SDS011;53334;51.976;20.144;2023-07-13T08:14:22;2.90;;;2.60;;
36651;SDS011;53334;51.976;20.144;2023-07-13T08:17:09;2.38;;;2.17;;
36651;SDS011;53334;51.976;20.144;2023-07-13T08:22:18;3.42;;;2.47;;
36651;SDS011;53334;51.976;20.144;2023-07-13T08:24:52;2.65;;;2.33;;
36651;SDS011;53334;51.976;20.144;2023-07-13T08:27:28;3.53;;;2.35;;
36651;SDS011;53334;51.976;20.144;2023-07-13T08:30:02;2.45;;;2.25;;
36651;SDS011;53334;51.976;20.144;2023-07-13T08:32:37;2.60;;;2.20;;
36651;SDS011;53334;51.976;20.144;2023-07-13T08:35:12;3.95;;;2.83;;
36651;SDS011;53334;51.976;20.144;2023-07-13T08:37:47;2.38;;;2.17;;
36651;SDS011;53334;51.976;20.144;2023-07-13T08:40:23;2.13;;;1.90;;
36651;SDS011;53334;51.976;20.144;2023-07-13T08:42:58;2.63;;;2.42;;
36651;SDS011;53334;51.976;20.144;2023-07-13T08:45:34;3.10;;;2.72;;
36651;SDS011;53334;51.976;20.144;2023-07-13T08:48:17;2.35;;;2.15;;
36651;SDS011;53334;51.976;20.144;2023-07-13T08:50:57;2.53;;;2.33;;
36651;SDS011;53334;51.976;20.144;2023-07-13T08:53:34;2.80;;;2.60;;
36651;SDS011;53334;51.976;20.144;2023-07-13T08:56:11;2.65;;;2.45;;
36651;SDS011;53334;51.976;20.144;2023-07-13T08:58:51;2.78;;;2.58;;
36651;SDS011;53334;51.976;20.144;2023-07-13T09:01:33;2.67;;;2.22;;
36651;SDS011;53334;51.976;20.144;2023-07-13T09:04:21;2.33;;;2.13;;
36651;SDS011;53334;51.976;20.144;2023-07-13T09:07:01;3.17;;;2.42;;
36651;SDS011;53334;51.976;20.144;2023-07-13T09:09:42;2.47;;;2.28;;
36651;SDS011;53334;51.976;20.144;2023-07-13T09:12:25;2.50;;;2.30;;
36651;SDS011;53334;51.976;20.144;2023-07-13T09:17:59;2.30;;;2.10;;
36651;SDS011;53334;51.976;20.144;2023-07-13T09:20:37;2.63;;;2.35;;
36651;SDS011;53334;51.976;20.144;2023-07-13T09:23:20;3.00;;;2.70;;
36651;SDS011;53334;51.976;20.144;2023-07-13T09:25:58;2.58;;;2.38;;
36651;SDS011;53334;51.976;20.144;2023-07-13T09:28:37;2.72;;;2.53;;
36651;SDS011;53334;51.976;20.144;2023-07-13T09:31:13;2.40;;;2.20;;
36651;SDS011;53334;51.976;20.144;2023-07-13T09:33:48;2.13;;;1.95;;
36651;SDS011;53334;51.976;20.144;2023-07-13T09:36:23;2.33;;;2.00;;
36651;SDS011;53334;51.976;20.144;2023-07-13T09:39:02;2.65;;;2.40;;
36651;SDS011;53334;51.976;20.144;2023-07-13T09:41:39;4.18;;;2.30;;
36651;SDS011;53334;51.976;20.144;2023-07-13T09:44:26;2.65;;;2.25;;
36651;SDS011;53334;51.976;20.144;2023-07-13T09:47:03;2.42;;;2.22;;
36651;SDS011;53334;51.976;20.144;2023-07-13T09:49:48;2.55;;;2.22;;
36651;SDS011;53334;51.976;20.144;2023-07-13T09:55:28;2.65;;;2.20;;
36651;SDS011;53334;51.976;20.144;2023-07-13T09:58:08;2.85;;;2.65;;
36651;SDS011;53334;51.976;20.144;2023-07-13T10:00:53;2.90;;;2.38;;
36651;SDS011;53334;51.976;20.144;2023-07-13T10:06:11;2.38;;;2.17;;
36651;SDS011;53334;51.976;20.144;2023-07-13T10:08:46;2.85;;;2.65;;
36651;SDS011;53334;51.976;20.144;2023-07-13T10:11:22;2.88;;;2.28;;
36651;SDS011;53334;51.976;20.144;2023-07-13T10:13:58;2.85;;;2.53;;
36651;SDS011;53334;51.976;20.144;2023-07-13T10:16:34;2.20;;;2.00;;
36651;SDS011;53334;51.976;20.144;2023-07-13T10:19:10;2.70;;;2.50;;
36651;SDS011;53334;51.976;20.144;2023-07-13T10:21:49;2.47;;;2.28;;
36651;SDS011;53334;51.976;20.144;2023-07-13T10:24:27;2.40;;;2.20;;
36651;SDS011;53334;51.976;20.144;2023-07-13T10:27:10;2.67;;;2.47;;
36651;SDS011;53334;51.976;20.144;2023-07-13T10:29:49;2.70;;;2.50;;
36651;SDS011;53334;51.976;20.144;2023-07-13T10:32:26;2.38;;;2.17;;
36651;SDS011;53334;51.976;20.144;2023-07-13T10:34:59;2.50;;;2.30;;
36651;SDS011;53334;51.976;20.144;2023-07-13T10:37:36;2.95;;;2.47;;
36651;SDS011;53334;51.976;20.144;2023-07-13T10:40:17;2.67;;;2.40;;
36651;SDS011;53334;51.976;20.144;2023-07-13T10:42:56;2.10;;;2.00;;
36651;SDS011;53334;51.976;20.144;2023-07-13T10:45:33;2.50;;;2.30;;
36651;SDS011;53334;51.976;20.144;2023-07-13T10:48:08;2.50;;;2.30;;
36651;SDS011;53334;51.976;20.144;2023-07-13T10:50:48;2.70;;;2.50;;
36651;SDS011;53334;51.976;20.144;2023-07-13T10:53:27;2.63;;;2.42;;
36651;SDS011;53334;51.976;20.144;2023-07-13T10:56:03;2.78;;;2.58;;
36651;SDS011;53334;51.976;20.144;2023-07-13T10:58:41;2.72;;;2.53;;
36651;SDS011;53334;51.976;20.144;2023-07-13T11:01:25;2.50;;;2.30;;
36651;SDS011;53334;51.976;20.144;2023-07-13T11:04:15;3.35;;;2.58;;
36651;SDS011;53334;51.976;20.144;2023-07-13T11:09:40;3.00;;;2.70;;
36651;SDS011;53334;51.976;20.144;2023-07-13T11:12:28;3.00;;;2.70;;
36651;SDS011;53334;51.976;20.144;2023-07-13T11:15:28;2.42;;;2.22;;
36651;SDS011;53334;51.976;20.144;2023-07-13T11:18:11;2.53;;;2.33;;
36651;SDS011;53334;51.976;20.144;2023-07-13T11:20:55;2.60;;;2.40;;
36651;SDS011;53334;51.976;20.144;2023-07-13T11:24:02;2.92;;;2.65;;
36651;SDS011;53334;51.976;20.144;2023-07-13T11:26:50;3.30;;;2.90;;
36651;SDS011;53334;51.976;20.144;2023-07-13T11:29:32;3.15;;;2.85;;
36651;SDS011;53334;51.976;20.144;2023-07-13T11:32:23;2.95;;;2.65;;
36651;SDS011;53334;51.976;20.144;2023-07-13T11:34:58;2.70;;;2.50;;
36651;SDS011;53334;51.976;20.144;2023-07-13T11:37:32;2.78;;;2.58;;
36651;SDS011;53334;51.976;20.144;2023-07-13T11:42:44;3.50;;;2.63;;
36651;SDS011;53334;51.976;20.144;2023-07-13T11:45:18;2.80;;;2.60;;
36651;SDS011;53334;51.976;20.144;2023-07-13T11:48:19;3.03;;;2.83;;
36651;SDS011;53334;51.976;20.144;2023-07-13T11:50:56;3.00;;;2.70;;
36651;SDS011;53334;51.976;20.144;2023-07-13T11:53:35;3.03;;;2.75;;
36651;SDS011;53334;51.976;20.144;2023-07-13T11:56:13;3.00;;;2.70;;
36651;SDS011;53334;51.976;20.144;2023-07-13T11:58:48;3.05;;;2.83;;
36651;SDS011;53334;51.976;20.144;2023-07-13T12:01:24;2.85;;;2.65;;
36651;SDS011;53334;51.976;20.144;2023-07-13T12:04:04;2.67;;;2.47;;
36651;SDS011;53334;51.976;20.144;2023-07-13T12:06:40;3.63;;;3.08;;
36651;SDS011;53334;51.976;20.144;2023-07-13T12:09:14;3.53;;;2.80;;
36651;SDS011;53334;51.976;20.144;2023-07-13T12:11:48;3.20;;;3.00;;
36651;SDS011;53334;51.976;20.144;2023-07-13T12:14:21;3.38;;;3.05;;
36651;SDS011;53334;51.976;20.144;2023-07-13T12:16:56;3.13;;;2.83;;
36651;SDS011;53334;51.976;20.144;2023-07-13T12:19:31;3.20;;;2.90;;
36651;SDS011;53334;51.976;20.144;2023-07-13T12:22:08;3.35;;;3.05;;
36651;SDS011;53334;51.976;20.144;2023-07-13T12:24:44;3.40;;;3.08;;
36651;SDS011;53334;51.976;20.144;2023-07-13T12:27:19;3.08;;;2.78;;
36651;SDS011;53334;51.976;20.144;2023-07-13T12:29:57;3.28;;;2.72;;
36651;SDS011;53334;51.976;20.144;2023-07-13T12:32:32;4.95;;;3.53;;
36651;SDS011;53334;51.976;20.144;2023-07-13T12:35:15;3.50;;;3.20;;
36651;SDS011;53334;51.976;20.144;2023-07-13T12:37:53;3.13;;;2.90;;
36651;SDS011;53334;51.976;20.144;2023-07-13T12:40:31;3.10;;;2.80;;
36651;SDS011;53334;51.976;20.144;2023-07-13T12:43:10;3.38;;;3.08;;
36651;SDS011;53334;51.976;20.144;2023-07-13T12:48:38;3.20;;;2.90;;
36651;SDS011;53334;51.976;20.144;2023-07-13T12:51:22;3.40;;;3.10;;
36651;SDS011;53334;51.976;20.144;2023-07-13T12:53:58;2.80;;;2.60;;
36651;SDS011;53334;51.976;20.144;2023-07-13T12:56:43;3.30;;;2.92;;
36651;SDS011;53334;51.976;20.144;2023-07-13T12:59:19;3.42;;;3.10;;
36651;SDS011;53334;51.976;20.144;2023-07-13T13:01:53;3.50;;;3.20;;
36651;SDS011;53334;51.976;20.144;2023-07-13T13:07:03;3.35;;;3.05;;
36651;SDS011;53334;51.976;20.144;2023-07-13T13:09:41;3.53;;;3.22;;
36651;SDS011;53334;51.976;20.144;2023-07-13T13:12:14;3.28;;;2.97;;
36651;SDS011;53334;51.976;20.144;2023-07-13T13:14:48;3.53;;;3.22;;
36651;SDS011;53334;51.976;20.144;2023-07-13T13:17:24;2.92;;;2.65;;
36651;SDS011;53334;51.976;20.144;2023-07-13T13:20:04;3.20;;;2.90;;
36651;SDS011;53334;51.976;20.144;2023-07-13T13:22:47;3.45;;;3.17;;
36651;SDS011;53334;51.976;20.144;2023-07-13T13:25:21;3.30;;;3.00;;
36651;SDS011;53334;51.976;20.144;2023-07-13T13:30:28;3.03;;;2.83;;
36651;SDS011;53334;51.976;20.144;2023-07-13T13:33:01;3.28;;;3.00;;
36651;SDS011;53334;51.976;20.144;2023-07-13T13:35:35;2.83;;;2.63;;
36651;SDS011;53334;51.976;20.144;2023-07-13T13:38:10;3.30;;;3.10;;
36651;SDS011;53334;51.976;20.144;2023-07-13T13:40:45;3.13;;;2.83;;
36651;SDS011;53334;51.976;20.144;2023-07-13T13:43:21;3.30;;;3.00;;
36651;SDS011;53334;51.976;20.144;2023-07-13T13:45:58;3.45;;;3.15;;
36651;SDS011;53334;51.976;20.144;2023-07-13T13:48:33;3.28;;;3.00;;
36651;SDS011;53334;51.976;20.144;2023-07-13T13:51:14;2.90;;;2.60;;
36651;SDS011;53334;51.976;20.144;2023-07-13T13:53:50;3.35;;;2.85;;
36651;SDS011;53334;51.976;20.144;2023-07-13T13:56:25;3.00;;;2.75;;
36651;SDS011;53334;51.976;20.144;2023-07-13T13:58:59;2.85;;;2.65;;
36651;SDS011;53334;51.976;20.144;2023-07-13T14:04:06;3.13;;;2.83;;
36651;SDS011;53334;51.976;20.144;2023-07-13T14:06:41;2.70;;;2.50;;
36651;SDS011;53334;51.976;20.144;2023-07-13T14:09:19;2.60;;;2.40;;
36651;SDS011;53334;51.976;20.144;2023-07-13T14:11:53;2.97;;;2.78;;
36651;SDS011;53334;51.976;20.144;2023-07-13T14:14:27;2.83;;;2.63;;
36651;SDS011;53334;51.976;20.144;2023-07-13T14:17:01;2.78;;;2.58;;
36651;SDS011;53334;51.976;20.144;2023-07-13T14:19:35;3.05;;;2.80;;
36651;SDS011;53334;51.976;20.144;2023-07-13T14:22:09;2.75;;;2.55;;
36651;SDS011;53334;51.976;20.144;2023-07-13T14:24:43;5.32;;;2.85;;
36651;SDS011;53334;51.976;20.144;2023-07-13T14:27:17;6.47;;;3.53;;
36651;SDS011;53334;51.976;20.144;2023-07-13T14:29:50;12.63;;;3.33;;
36651;SDS011;53334;51.976;20.144;2023-07-13T14:32:24;5.10;;;3.17;;
36651;SDS011;53334;51.976;20.144;2023-07-13T14:34:57;4.07;;;3.10;;
36651;SDS011;53334;51.976;20.144;2023-07-13T14:37:30;6.88;;;3.17;;
36651;SDS011;53334;51.976;20.144;2023-07-13T14:40:11;3.20;;;2.90;;
36651;SDS011;53334;51.976;20.144;2023-07-13T14:42:46;7.88;;;3.65;;
36651;SDS011;53334;51.976;20.144;2023-07-13T14:45:20;14.30;;;3.67;;
36651;SDS011;53334;51.976;20.144;2023-07-13T14:47:53;7.65;;;4.22;;
36651;SDS011;53334;51.976;20.144;2023-07-13T14:50:29;8.85;;;4.07;;
36651;SDS011;53334;51.976;20.144;2023-07-13T14:53:08;10.20;;;3.83;;
36651;SDS011;53334;51.976;20.144;2023-07-13T14:55:45;14.73;;;3.55;;
36651;SDS011;53334;51.976;20.144;2023-07-13T14:58:18;8.18;;;4.72;;
36651;SDS011;53334;51.976;20.144;2023-07-13T15:00:52;8.77;;;4.30;;
36651;SDS011;53334;51.976;20.144;2023-07-13T15:03:29;15.88;;;4.15;;
36651;SDS011;53334;51.976;20.144;2023-07-13T15:06:03;21.02;;;3.97;;
36651;SDS011;53334;51.976;20.144;2023-07-13T15:11:12;9.53;;;4.17;;
36651;SDS011;53334;51.976;20.144;2023-07-13T15:13:45;7.43;;;3.72;;
36651;SDS011;53334;51.976;20.144;2023-07-13T15:16:21;11.07;;;4.45;;
36651;SDS011;53334;51.976;20.144;2023-07-13T15:18:56;12.02;;;3.92;;
36651;SDS011;53334;51.976;20.144;2023-07-13T15:21:31;8.68;;;4.53;;
36651;SDS011;53334;51.976;20.144;2023-07-13T15:24:07;8.35;;;3.83;;
36651;SDS011;53334;51.976;20.144;2023-07-13T15:26:43;10.45;;;4.65;;
36651;SDS011;53334;51.976;20.144;2023-07-13T15:29:17;6.00;;;4.20;;
36651;SDS011;53334;51.976;20.144;2023-07-13T15:31:50;10.30;;;4.35;;
36651;SDS011;53334;51.976;20.144;2023-07-13T15:34:25;19.23;;;4.35;;
36651;SDS011;53334;51.976;20.144;2023-07-13T15:36:59;12.00;;;5.30;;
36651;SDS011;53334;51.976;20.144;2023-07-13T15:39:32;10.23;;;3.85;;
36651;SDS011;53334;51.976;20.144;2023-07-13T15:42:09;10.52;;;3.97;;
36651;SDS011;53334;51.976;20.144;2023-07-13T15:44:47;7.70;;;4.28;;
36651;SDS011;53334;51.976;20.144;2023-07-13T15:47:21;12.45;;;4.35;;
36651;SDS011;53334;51.976;20.144;2023-07-13T15:49:54;15.20;;;4.70;;
36651;SDS011;53334;51.976;20.144;2023-07-13T15:52:30;8.30;;;4.13;;
36651;SDS011;53334;51.976;20.144;2023-07-13T15:55:05;11.93;;;5.05;;
36651;SDS011;53334;51.976;20.144;2023-07-13T15:57:43;12.95;;;4.47;;
36651;SDS011;53334;51.976;20.144;2023-07-13T16:00:20;7.10;;;4.78;;
36651;SDS011;53334;51.976;20.144;2023-07-13T16:02:55;9.75;;;4.43;;
36651;SDS011;53334;51.976;20.144;2023-07-13T16:05:28;13.90;;;4.75;;
36651;SDS011;53334;51.976;20.144;2023-07-13T16:08:02;14.77;;;5.00;;
36651;SDS011;53334;51.976;20.144;2023-07-13T16:10:37;17.13;;;5.22;;
36651;SDS011;53334;51.976;20.144;2023-07-13T16:13:15;15.52;;;5.28;;
36651;SDS011;53334;51.976;20.144;2023-07-13T16:15:51;12.27;;;5.82;;
36651;SDS011;53334;51.976;20.144;2023-07-13T16:20:58;12.98;;;5.30;;
36651;SDS011;53334;51.976;20.144;2023-07-13T16:23:32;14.93;;;5.18;;